Time;durP1;ratioP1;P1;durP2;ratioP2;P2;SDS_P1;SDS_P2;PMS_P1;PMS_P2;Temp;Humidity;BMP_temperature;BMP_pressure;BME280_temperature;BME280_humidity;BME280_pressure;Samples;Min_cycle;Max_cycle;Signal;HPM_P1;HPM_P2
2023/06/27 00:02:00;;;;;;;20.60;11.73;;;;;;;-143.21;94.35;71624.06;5111651;28;20211;-79
2023/06/27 00:04:28;;;;;;;18.70;11.23;;;;;;;-143.21;93.32;71616.13;5111408;28;20242;-79
2023/06/27 00:06:55;;;;;;;15.35;11.45;;;;;;;-143.21;92.61;71626.03;5111820;28;20208;-80
2023/06/27 00:09:23;;;;;;;16.25;11.70;;;;;;;-143.21;93.32;71630.00;5111680;28;20651;-79
2023/06/27 00:11:50;;;;;;;17.48;10.50;;;;;;;-143.21;93.02;71631.97;5111856;28;20207;-79
2023/06/27 00:14:19;;;;;;;18.25;10.50;;;;;;;-143.21;93.02;71628.00;5111434;28;20192;-79
2023/06/27 00:16:46;;;;;;;18.70;10.50;;;;;;;-143.21;92.74;71626.03;5111739;28;20188;-79
2023/06/27 00:19:12;;;;;;;16.88;10.02;;;;;;;-143.21;92.55;71633.97;5111703;28;20194;-79
2023/06/27 00:21:39;;;;;;;13.32;9.70;;;;;;;-143.21;92.54;71647.84;5111420;28;20216;-79
2023/06/27 00:24:06;;;;;;;12.68;10.10;;;;;;;-143.21;92.80;71657.75;5111567;28;20200;-79
2023/06/27 00:26:35;;;;;;;15.07;10.25;;;;;;;-143.21;93.61;71669.66;5111858;28;20195;-79
2023/06/27 00:29:02;;;;;;;16.40;10.20;;;;;;;-143.21;93.89;71669.66;5111551;28;20199;-79
2023/06/27 00:31:29;;;;;;;17.55;11.13;;;;;;;-143.21;93.34;71673.63;5111718;28;20191;-79
2023/06/27 00:33:55;;;;;;;16.98;10.25;;;;;;;-143.21;93.68;71671.63;5111078;28;20199;-80
2023/06/27 00:36:22;;;;;;;14.45;10.65;;;;;;;-143.21;93.65;71663.72;5111283;28;20222;-80
2023/06/27 00:38:49;;;;;;;20.23;10.85;;;;;;;-143.21;94.43;71671.63;5111260;28;20203;-80
2023/06/27 00:41:16;;;;;;;15.55;11.15;;;;;;;-143.21;94.74;71659.75;5111747;28;20623;-80
2023/06/27 00:43:44;;;;;;;19.27;10.70;;;;;;;-143.21;94.02;71661.72;5110170;28;20555;-80
2023/06/27 00:46:11;;;;;;;12.68;10.05;;;;;;;-143.21;93.91;71661.72;5102519;28;20227;-80
2023/06/27 00:48:39;;;;;;;16.30;10.15;;;;;;;-143.21;93.67;71659.75;5111554;28;20224;-80
2023/06/27 00:51:07;;;;;;;13.88;9.00;;;;;;;-143.21;92.38;71661.72;5111378;28;20204;-80
2023/06/27 00:53:34;;;;;;;15.80;8.85;;;;;;;-143.21;90.97;71663.72;5111772;28;20219;-85
2023/06/27 00:56:01;;;;;;;14.55;8.80;;;;;;;-143.21;90.37;71657.75;5111893;28;20215;-85
2023/06/27 00:58:28;;;;;;;10.40;8.30;;;;;;;-143.21;89.10;71669.66;5111583;28;20203;-85
2023/06/27 01:01:00;;;;;;;15.48;9.35;;;;;;;-143.21;88.58;71667.66;5111521;28;20195;-85
2023/06/27 01:03:30;;;;;;;16.23;9.15;;;;;;;-143.21;88.74;71667.66;5111536;28;20184;-84
2023/06/27 01:05:58;;;;;;;13.20;9.07;;;;;;;-143.21;89.57;71673.63;5111327;28;20192;-84
2023/06/27 01:08:32;;;;;;;17.40;9.73;;;;;;;-143.21;90.50;71673.63;5094109;28;20266;-84
2023/06/27 01:11:04;;;;;;;12.60;9.15;;;;;;;-143.21;91.16;71669.66;5091285;28;20180;-84
2023/06/27 01:13:38;;;;;;;13.65;9.45;;;;;;;-143.21;91.42;71671.63;5091103;28;20192;-85
2023/06/27 01:16:07;;;;;;;11.60;8.85;;;;;;;-143.21;91.74;71667.66;5090587;28;20220;-84
2023/06/27 01:18:36;;;;;;;13.23;9.02;;;;;;;-143.21;92.35;71677.59;5090732;28;20678;-85
2023/06/27 01:21:08;;;;;;;13.82;8.77;;;;;;;-143.21;92.81;71683.53;5090908;28;20232;-84
2023/06/27 01:23:48;;;;;;;13.02;9.55;;;;;;;-143.21;92.99;71681.56;5091254;28;20918;-85
2023/06/27 01:26:16;;;;;;;14.45;9.73;;;;;;;-143.21;92.94;71679.56;5090619;28;20707;-85
2023/06/27 01:28:42;;;;;;;15.15;8.90;;;;;;;-143.21;93.05;71681.56;5091176;28;20554;-85
2023/06/27 01:31:14;;;;;;;14.45;9.57;;;;;;;-143.21;91.73;71689.47;5091083;28;20205;-85
2023/06/27 01:33:44;;;;;;;17.73;9.20;;;;;;;-143.21;91.97;71701.38;5090834;28;20641;-85
2023/06/27 01:36:17;;;;;;;13.70;8.70;;;;;;;-143.21;91.65;71707.31;5090345;28;20216;-85
2023/06/27 01:38:57;;;;;;;12.68;8.90;;;;;;;-143.21;91.92;71721.22;5111033;28;20230;-85
2023/06/27 01:41:27;;;;;;;10.88;8.15;;;;;;;-143.21;91.97;71709.31;5110736;28;20570;-85
2023/06/27 01:43:55;;;;;;;13.00;8.88;;;;;;;-143.21;91.97;71703.34;5110821;28;20578;-85
2023/06/27 01:46:24;;;;;;;11.82;8.75;;;;;;;-143.21;91.98;71703.34;5114113;28;20192;-85
2023/06/27 01:48:52;;;;;;;12.35;9.02;;;;;;;-143.21;92.36;71705.34;5115176;28;20246;-85
2023/06/27 01:51:19;;;;;;;18.25;9.13;;;;;;;-143.21;92.07;71709.31;5114604;28;20207;-85
2023/06/27 01:53:47;;;;;;;11.77;9.10;;;;;;;-143.21;91.71;71701.38;5114904;28;20196;-85
2023/06/27 01:56:14;;;;;;;13.98;9.02;;;;;;;-143.21;91.92;71701.38;5114628;28;20602;-85
2023/06/27 01:58:41;;;;;;;11.77;8.65;;;;;;;-143.21;92.34;71707.31;5114765;28;20283;-85
2023/06/27 02:01:09;;;;;;;12.85;9.13;;;;;;;-143.21;92.61;71709.31;5122931;28;20196;-85
2023/06/27 02:03:36;;;;;;;12.65;8.90;;;;;;;-143.21;92.46;71709.31;5125864;28;20686;-85
2023/06/27 02:06:03;;;;;;;15.77;9.35;;;;;;;-143.21;91.85;71725.16;5128333;28;20207;-85
2023/06/27 02:08:29;;;;;;;16.33;9.43;;;;;;;-143.21;92.02;71731.13;5120315;28;20233;-85
2023/06/27 02:10:58;;;;;;;16.88;8.55;;;;;;;-143.21;92.62;71750.94;5116980;28;20249;-84
2023/06/27 02:13:26;;;;;;;18.95;9.07;;;;;;;-143.21;92.76;71745.00;5121553;28;20245;-85
2023/06/27 02:15:52;;;;;;;16.73;8.85;;;;;;;-143.21;93.01;71746.97;5114271;28;20698;-85
2023/06/27 02:18:19;;;;;;;11.05;9.05;;;;;;;-143.21;93.08;71748.97;5114380;28;20184;-85
2023/06/27 02:20:46;;;;;;;11.95;8.32;;;;;;;-143.21;93.43;71754.91;5113985;28;20224;-84
2023/06/27 02:23:13;;;;;;;12.95;9.07;;;;;;;-143.21;93.97;71756.91;5114726;28;20196;-85
2023/06/27 02:25:43;;;;;;;15.63;9.13;;;;;;;-143.21;93.75;71752.94;5114182;28;20200;-84
2023/06/27 02:28:11;;;;;;;15.63;9.40;;;;;;;-143.21;93.75;71748.97;5115808;28;20199;-84
2023/06/27 02:30:38;;;;;;;11.98;8.20;;;;;;;-143.21;93.44;71758.88;5116521;28;20196;-84
2023/06/27 02:33:04;;;;;;;13.57;9.27;;;;;;;-143.21;93.22;71758.88;5118817;28;20188;-84
2023/06/27 02:35:31;;;;;;;11.18;8.40;;;;;;;-143.21;92.95;71762.84;5116711;28;20212;-84
2023/06/27 02:37:58;;;;;;;18.50;8.98;;;;;;;-143.21;93.12;71768.78;5116872;28;20245;-84
2023/06/27 02:40:25;;;;;;;15.95;8.65;;;;;;;-143.21;92.29;71768.78;5113621;28;20196;-84
2023/06/27 02:42:51;;;;;;;12.80;8.87;;;;;;;-143.21;92.24;71770.78;5113862;28;20610;-84
2023/06/27 02:45:19;;;;;;;16.33;8.95;;;;;;;-143.21;91.30;71776.72;5113915;28;20192;-84
2023/06/27 02:47:46;;;;;;;15.17;9.07;;;;;;;-143.21;91.33;71778.72;5113780;28;20195;-84
2023/06/27 02:50:13;;;;;;;12.93;8.50;;;;;;;-143.21;91.55;71776.72;5113546;28;20196;-84
2023/06/27 02:52:40;;;;;;;10.95;8.70;;;;;;;-143.21;92.08;71784.66;5113208;28;20196;-84
2023/06/27 02:55:07;;;;;;;13.02;8.43;;;;;;;-143.21;92.42;71786.63;5113305;28;20592;-84
2023/06/27 02:57:34;;;;;;;18.90;9.13;;;;;;;-143.21;92.70;71784.66;5112312;28;20257;-85
2023/06/27 03:00:03;;;;;;;13.07;8.70;;;;;;;-143.21;92.39;71772.75;5113208;28;20260;-85
2023/06/27 03:02:31;;;;;;;16.93;9.10;;;;;;;-143.21;92.27;71770.78;5113172;28;20646;-85
2023/06/27 03:04:57;;;;;;;17.40;9.50;;;;;;;-143.21;92.83;71786.63;5112852;28;20735;-85
2023/06/27 03:07:24;;;;;;;15.63;8.97;;;;;;;-143.21;92.67;71778.72;5113088;28;20658;-84
2023/06/27 03:09:51;;;;;;;15.23;9.10;;;;;;;-143.21;92.52;71788.63;5113367;28;20295;-84
2023/06/27 03:12:18;;;;;;;18.13;10.18;;;;;;;-143.21;92.47;71788.63;5112917;28;20192;-84
2023/06/27 03:14:45;;;;;;;24.27;9.70;;;;;;;-143.21;92.47;71784.66;5113050;28;20207;-86
2023/06/27 03:17:11;;;;;;;16.80;10.00;;;;;;;-143.21;92.80;71788.63;5112672;28;20216;-84
2023/06/27 03:19:39;;;;;;;23.90;11.10;;;;;;;-143.21;92.34;71790.59;5112689;28;20204;-83
2023/06/27 03:22:07;;;;;;;22.10;11.43;;;;;;;-143.21;91.39;71792.59;5112984;28;20253;-84
2023/06/27 03:24:33;;;;;;;23.55;11.57;;;;;;;-143.21;91.18;71790.59;5112525;28;20192;-85
2023/06/27 03:27:00;;;;;;;22.05;11.02;;;;;;;-143.21;90.92;71788.63;5116597;28;20192;-83
2023/06/27 03:29:27;;;;;;;18.92;10.13;;;;;;;-143.21;91.12;71786.63;5118706;28;20199;-83
2023/06/27 03:31:57;;;;;;;18.60;9.63;;;;;;;-143.21;90.95;71774.75;5120481;28;20196;-84
2023/06/27 03:34:24;;;;;;;17.97;9.40;;;;;;;-143.21;90.73;71774.75;5116503;28;20192;-84
2023/06/27 03:37:04;;;;;;;25.10;9.70;;;;;;;-143.21;90.62;71762.84;5112779;28;20720;-84
2023/06/27 03:39:30;;;;;;;14.50;9.48;;;;;;;-143.21;90.69;71768.78;5113722;28;20183;-83
2023/06/27 03:41:57;;;;;;;18.02;10.32;;;;;;;-143.21;91.05;71768.78;5112850;28;20682;-85
2023/06/27 03:44:24;;;;;;;18.40;9.43;;;;;;;-143.21;91.82;71772.75;5112497;28;20199;-85
2023/06/27 03:46:51;;;;;;;21.55;9.68;;;;;;;-143.21;92.34;71778.72;5112359;28;20191;-85
2023/06/27 03:49:21;;;;;;;19.87;10.53;;;;;;;-143.21;92.49;71770.78;5112074;28;20202;-85
2023/06/27 03:51:47;;;;;;;16.90;10.10;;;;;;;-143.21;92.10;71768.78;5112116;28;20188;-85
2023/06/27 03:54:21;;;;;;;16.00;9.82;;;;;;;-143.21;92.50;71768.78;5111992;28;20192;-85
2023/06/27 03:56:48;;;;;;;14.83;9.77;;;;;;;-143.21;92.64;71766.81;5111812;28;20227;-85
2023/06/27 03:59:14;;;;;;;21.60;10.57;;;;;;;-143.21;92.26;71762.84;5112092;28;20192;-85
2023/06/27 04:01:43;;;;;;;14.23;10.15;;;;;;;-143.21;92.44;71756.91;5112071;28;20200;-80
2023/06/27 04:04:10;;;;;;;18.08;11.43;;;;;;;-143.21;92.47;71752.94;5111723;28;20202;-81
2023/06/27 04:06:37;;;;;;;17.43;10.27;;;;;;;-143.21;92.23;71758.88;5111886;28;20204;-80
2023/06/27 04:09:04;;;;;;;20.05;10.32;;;;;;;-143.21;91.69;71756.91;5111463;28;20195;-79
2023/06/27 04:11:32;;;;;;;16.08;10.60;;;;;;;-143.21;91.81;71770.78;5111654;28;20192;-79
2023/06/27 04:14:00;;;;;;;17.73;10.00;;;;;;;-143.21;92.18;71774.75;5111709;28;20188;-79
2023/06/27 04:16:27;;;;;;;16.40;10.27;;;;;;;-143.21;91.47;71772.75;5111565;28;20216;-80
2023/06/27 04:18:54;;;;;;;26.05;10.10;;;;;;;-143.21;91.27;71770.78;5111607;28;20192;-81
2023/06/27 04:21:22;;;;;;;21.90;10.15;;;;;;;-143.21;90.77;71772.75;5095829;28;20224;-80
2023/06/27 04:23:50;;;;;;;17.47;10.10;;;;;;;-143.21;90.56;71768.78;5091198;28;20188;-80
2023/06/27 04:26:18;;;;;;;17.20;10.07;;;;;;;-143.21;89.62;71768.78;5091197;28;20192;-80
2023/06/27 04:28:48;;;;;;;20.30;10.32;;;;;;;-143.21;89.66;71766.81;5091399;28;20192;-79
2023/06/27 04:31:15;;;;;;;16.90;10.48;;;;;;;-143.21;89.80;71760.88;5091165;28;20189;-80
2023/06/27 04:33:42;;;;;;;20.25;10.35;;;;;;;-143.21;90.05;71766.81;5091488;28;20193;-80
2023/06/27 04:36:09;;;;;;;13.80;9.85;;;;;;;-143.21;90.05;71770.78;5091076;28;20221;-80
2023/06/27 04:38:38;;;;;;;18.38;9.73;;;;;;;-143.21;90.61;71766.81;5083069;28;20208;-81
2023/06/27 04:41:05;;;;;;;16.73;9.93;;;;;;;-143.21;89.82;71760.88;5090787;28;20220;-79
2023/06/27 04:43:33;;;;;;;15.88;9.13;;;;;;;-143.21;89.70;71762.84;5090976;28;20192;-80
2023/06/27 04:46:01;;;;;;;18.38;9.50;;;;;;;-143.21;90.25;71760.88;5091121;28;20616;-79
2023/06/27 04:48:28;;;;;;;13.07;8.80;;;;;;;-143.21;90.60;71764.81;5091166;28;20189;-80
2023/06/27 04:50:56;;;;;;;17.87;9.00;;;;;;;-143.21;90.11;71764.81;5090289;28;20219;-79
2023/06/27 04:53:23;;;;;;;12.25;8.63;;;;;;;-143.21;90.39;71768.78;5090502;28;20199;-79
2023/06/27 04:55:51;;;;;;;20.33;9.02;;;;;;;-143.21;90.21;71764.81;5090929;28;20233;-79
2023/06/27 04:58:18;;;;;;;13.18;9.07;;;;;;;-143.21;89.79;71766.81;5091246;28;20192;-79
2023/06/27 05:00:47;;;;;;;15.00;9.40;;;;;;;-143.21;89.79;71764.81;5090995;28;20201;-80
2023/06/27 05:03:15;;;;;;;11.93;8.83;;;;;;;-143.21;90.07;71770.78;5090893;28;20193;-79
2023/06/27 05:05:43;;;;;;;15.53;9.53;;;;;;;-143.21;89.61;71762.84;5090866;28;20628;-80
2023/06/27 05:08:10;;;;;;;16.50;9.82;;;;;;;-143.21;89.64;71764.81;5082936;28;20244;-80
2023/06/27 05:10:38;;;;;;;18.70;9.13;;;;;;;-143.21;89.43;71760.88;5090373;28;20663;-80
2023/06/27 05:13:05;;;;;;;18.30;10.15;;;;;;;-143.21;89.58;71754.91;5090972;28;20204;-80
2023/06/27 05:15:32;;;;;;;23.85;9.98;;;;;;;-143.21;89.55;71756.91;5090442;28;20205;-80
2023/06/27 05:18:24;;;;;;;15.73;10.30;;;;;;;-143.21;90.35;71754.91;5090561;28;20220;-80
2023/06/27 05:20:51;;;;;;;14.80;10.10;;;;;;;-143.21;90.19;71752.94;5093166;28;20655;-80
2023/06/27 05:23:18;;;;;;;18.83;10.70;;;;;;;-143.21;89.84;71748.97;5094406;28;20575;-80
2023/06/27 05:25:45;;;;;;;18.33;10.87;;;;;;;-143.21;90.07;71746.97;5094409;28;20257;-80
2023/06/27 05:28:12;;;;;;;19.20;10.73;;;;;;;-143.21;90.24;71741.03;5093985;28;20541;-80
2023/06/27 05:30:39;;;;;;;14.80;10.13;;;;;;;-143.21;90.70;71741.03;5094265;28;20204;-80
2023/06/27 05:33:06;;;;;;;21.33;10.43;;;;;;;-143.21;90.96;71729.13;5094317;28;20644;-79
2023/06/27 05:35:34;;;;;;;17.83;10.52;;;;;;;-143.21;91.27;71735.09;5094432;28;20200;-80
2023/06/27 05:38:01;;;;;;;15.75;10.23;;;;;;;-143.21;90.11;71727.16;5086385;28;20228;-79
2023/06/27 05:40:28;;;;;;;18.38;10.00;;;;;;;-143.21;89.34;71717.25;5093990;28;20200;-79
2023/06/27 05:42:55;;;;;;;17.20;10.07;;;;;;;-143.21;87.98;71707.31;5093996;28;20188;-80
2023/06/27 05:45:22;;;;;;;18.13;9.77;;;;;;;-143.21;87.86;71705.34;5094105;28;20192;-79
2023/06/27 05:47:49;;;;;;;15.05;9.20;;;;;;;-143.21;87.80;71699.41;5093702;28;20211;-80
2023/06/27 05:50:16;;;;;;;16.23;9.55;;;;;;;-143.21;86.25;71689.47;5093906;28;20200;-79
2023/06/27 05:52:44;;;;;;;17.27;10.10;;;;;;;-143.21;85.93;71691.47;5094063;28;20659;-80
2023/06/27 05:55:10;;;;;;;13.25;9.57;;;;;;;-143.21;85.41;71691.47;5094102;28;20201;-80
2023/06/27 05:57:37;;;;;;;12.63;9.15;;;;;;;-143.21;85.31;71683.53;5093541;28;20216;-80
2023/06/27 06:00:10;;;;;;;15.02;9.65;;;;;;;-143.21;85.46;71673.63;5093972;28;20568;-80
2023/06/27 06:02:37;;;;;;;18.20;9.10;;;;;;;-143.21;85.44;71663.72;5093623;28;20199;-81
2023/06/27 06:05:07;;;;;;;15.18;9.52;;;;;;;-143.21;85.35;71661.72;5093545;28;20197;-81
2023/06/27 06:07:34;;;;;;;15.48;9.95;;;;;;;-143.21;85.36;71649.81;5085814;28;20197;-80
2023/06/27 06:10:02;;;;;;;18.25;9.93;;;;;;;-143.21;84.99;71647.84;5093533;28;20664;-80
2023/06/27 06:12:29;;;;;;;14.95;8.90;;;;;;;-143.21;83.74;71643.88;5093345;28;20185;-80
2023/06/27 06:14:56;;;;;;;16.80;9.20;;;;;;;-143.21;83.78;71633.97;5093434;28;20660;-80
2023/06/27 06:17:23;;;;;;;16.13;9.10;;;;;;;-143.21;83.85;71620.09;5093137;28;20224;-81
2023/06/27 06:19:49;;;;;;;15.95;8.65;;;;;;;-143.21;83.64;71608.19;5093407;28;20196;-80
2023/06/27 06:22:16;;;;;;;13.65;8.48;;;;;;;-143.21;82.89;71602.25;5093319;28;20204;-80
2023/06/27 06:24:43;;;;;;;16.17;9.35;;;;;;;-143.21;81.73;71598.28;5093442;28;20190;-80
2023/06/27 06:27:11;;;;;;;17.73;8.77;;;;;;;-143.21;80.81;71590.34;5093302;28;20196;-80
2023/06/27 06:29:38;;;;;;;17.02;9.13;;;;;;;-143.21;80.35;71588.38;5093265;28;20196;-80
2023/06/27 06:32:06;;;;;;;14.95;9.15;;;;;;;-143.21;79.07;71570.53;5091993;28;20303;-80
2023/06/27 06:34:33;;;;;;;14.77;8.93;;;;;;;-143.21;79.54;71564.56;5093081;28;20254;-80
2023/06/27 06:37:00;;;;;;;13.52;8.93;;;;;;;-143.21;79.79;71558.63;5087408;28;20228;-79
2023/06/27 06:39:26;;;;;;;17.33;8.30;;;;;;;-143.21;78.99;71558.63;5091285;28;20211;-79
2023/06/27 06:41:53;;;;;;;15.68;8.68;;;;;;;-143.21;79.45;71542.75;5092927;28;20196;-80
2023/06/27 06:44:21;;;;;;;18.83;8.77;;;;;;;-143.21;78.39;71518.97;5093202;28;20200;-81
2023/06/27 06:46:48;;;;;;;11.88;8.32;;;;;;;-143.21;76.56;71505.09;5093159;28;20180;-80
2023/06/27 06:49:15;;;;;;;13.13;8.25;;;;;;;-143.21;77.74;71515.00;5093043;28;20196;-80
2023/06/27 06:51:42;;;;;;;14.27;8.45;;;;;;;-143.21;77.87;71511.03;5092427;28;20599;-79
2023/06/27 06:54:09;;;;;;;11.75;8.27;;;;;;;-143.21;77.63;71503.09;5092840;28;20753;-79
2023/06/27 06:56:35;;;;;;;14.85;8.55;;;;;;;-143.21;77.54;71493.19;5093019;28;20228;-80
2023/06/27 06:59:06;;;;;;;12.02;8.45;;;;;;;-143.21;77.89;71487.25;5092510;28;20205;-80
2023/06/27 07:01:34;;;;;;;14.70;8.23;;;;;;;-143.21;78.74;71477.34;5093067;28;20216;-80
2023/06/27 07:04:01;;;;;;;16.58;9.27;;;;;;;-143.21;78.53;71469.41;5092831;28;20188;-80
2023/06/27 07:06:28;;;;;;;12.02;8.82;;;;;;;-143.21;78.53;71455.53;5091496;28;20200;-80
2023/06/27 07:08:55;;;;;;;14.13;8.82;;;;;;;-143.21;78.06;71449.56;5086119;28;20193;-79
2023/06/27 07:11:22;;;;;;;14.13;9.32;;;;;;;-143.21;77.61;71435.69;5092536;28;20200;-80
2023/06/27 07:13:49;;;;;;;11.13;8.57;;;;;;;-143.21;77.51;71431.72;5092530;28;20200;-81
2023/06/27 07:16:16;;;;;;;13.95;8.40;;;;;;;-143.21;77.32;71423.78;5092641;28;20597;-79
2023/06/27 07:18:44;;;;;;;10.07;7.88;;;;;;;-143.21;77.57;71419.84;5092126;28;20228;-79
2023/06/27 07:21:11;;;;;;;11.35;8.48;;;;;;;-143.21;77.29;71411.91;5091968;28;20239;-80
2023/06/27 07:23:38;;;;;;;12.27;8.73;;;;;;;-143.21;76.35;71411.91;5091893;28;20205;-79
2023/06/27 07:26:05;;;;;;;11.30;8.32;;;;;;;-143.21;75.90;71411.91;5092142;28;20204;-79
2023/06/27 07:28:32;;;;;;;12.77;7.97;;;;;;;-143.21;74.59;71402.00;5092184;28;20204;-79
2023/06/27 07:30:58;;;;;;;10.20;7.63;;;;;;;-143.21;74.20;71405.94;5091796;28;20189;-80
2023/06/27 07:33:25;;;;;;;16.40;8.98;;;;;;;-143.21;73.51;71405.94;5091757;28;20200;-81
2023/06/27 07:35:54;;;;;;;14.82;8.73;;;;;;;-143.21;73.41;71386.13;5091788;28;20299;-80
2023/06/27 07:38:20;;;;;;;15.32;8.82;;;;;;;-143.21;73.96;71372.25;5084255;28;20647;-79
2023/06/27 07:40:47;;;;;;;13.10;8.93;;;;;;;-143.21;74.43;71364.31;5092031;28;20197;-79
2023/06/27 07:43:14;;;;;;;12.32;8.35;;;;;;;-143.21;74.98;71360.34;5091302;28;20189;-79
2023/06/27 07:45:41;;;;;;;11.38;8.07;;;;;;;-143.21;73.83;71358.38;5091653;28;20196;-79
2023/06/27 07:48:08;;;;;;;9.70;7.90;;;;;;;-143.21;72.89;71348.47;5091746;28;20203;-79
2023/06/27 07:50:34;;;;;;;12.77;7.20;;;;;;;-143.21;70.35;71342.50;5091441;28;20196;-80
2023/06/27 07:53:03;;;;;;;11.35;7.30;;;;;;;-143.21;69.36;71332.59;5090943;28;20582;-80
2023/06/27 07:55:30;;;;;;;11.82;7.95;;;;;;;-143.21;68.96;71322.69;5091564;28;20189;-79
2023/06/27 07:57:56;;;;;;;14.57;7.40;;;;;;;-143.21;68.66;71306.81;5091354;28;20217;-79
2023/06/27 08:00:23;;;;;;;12.98;7.88;;;;;;;-143.21;68.86;71294.94;5091421;28;20667;-79
2023/06/27 08:02:50;;;;;;;10.55;6.95;;;;;;;-143.21;67.77;71283.03;5091770;28;20188;-79
2023/06/27 08:05:18;;;;;;;13.77;7.93;;;;;;;-143.21;67.44;71285.03;5091613;28;20201;-80
2023/06/27 08:07:45;;;;;;;15.95;7.95;;;;;;;-143.21;67.38;71285.03;5083901;28;20288;-80
2023/06/27 08:10:13;;;;;;;13.20;7.38;;;;;;;-143.21;68.05;71287.00;5091499;28;20538;-80
2023/06/27 08:12:40;;;;;;;9.27;6.40;;;;;;;-143.21;67.03;71285.03;5091444;28;20192;-80
2023/06/27 08:15:07;;;;;;;12.80;7.10;;;;;;;-143.21;68.26;71277.09;5091204;28;20188;-80
2023/06/27 08:17:34;;;;;;;12.55;7.30;;;;;;;-143.21;68.64;71273.13;5091431;28;20213;-80
2023/06/27 08:20:01;;;;;;;13.52;7.68;;;;;;;-143.21;67.93;71257.25;5091445;28;20312;-80
2023/06/27 08:22:29;;;;;;;11.35;7.05;;;;;;;-143.21;67.08;71249.34;5091193;28;20589;-80
2023/06/27 08:24:55;;;;;;;10.20;7.55;;;;;;;-143.21;66.72;71245.38;5091253;28;20201;-80
2023/06/27 08:27:24;;;;;;;13.02;7.57;;;;;;;-143.21;66.66;71241.41;5091243;28;20197;-80
2023/06/27 08:29:53;;;;;;;9.32;6.45;;;;;;;-143.21;64.43;71237.44;5091413;28;20263;-81
2023/06/27 08:32:21;;;;;;;7.93;6.07;;;;;;;-143.21;62.22;71239.41;5093529;28;20224;-80
2023/06/27 08:34:47;;;;;;;9.38;6.40;;;;;;;-143.21;63.07;71231.50;5092022;28;20207;-80
2023/06/27 08:37:14;;;;;;;11.30;6.90;;;;;;;-143.21;63.37;71219.59;5083848;28;20233;-79
2023/06/27 08:39:41;;;;;;;8.18;6.50;;;;;;;-143.21;63.75;71199.78;5071392;28;20196;-80
2023/06/27 08:42:08;;;;;;;17.83;6.40;;;;;;;-143.21;64.05;71189.84;5071627;28;20242;-80
2023/06/27 08:44:36;;;;;;;9.23;6.18;;;;;;;-143.21;62.28;71170.03;5072437;28;20202;-81
2023/06/27 08:47:06;;;;;;;7.72;6.13;;;;;;;-143.21;62.60;71158.13;5072409;28;20208;-80
2023/06/27 08:49:35;;;;;;;9.90;6.40;;;;;;;-143.21;62.18;71150.22;5073019;28;20575;-81
2023/06/27 08:52:04;;;;;;;7.50;6.05;;;;;;;-143.21;62.22;71140.28;5072028;28;20201;-80
2023/06/27 08:54:36;;;;;;;9.18;5.97;;;;;;;-143.21;61.40;71128.41;5072214;28;20189;-79
2023/06/27 08:57:06;;;;;;;8.45;5.93;;;;;;;-143.21;59.61;71112.53;5075619;28;20193;-80
2023/06/27 08:59:36;;;;;;;7.55;5.70;;;;;;;-143.21;59.58;71108.56;5075751;28;20552;-79
2023/06/27 09:02:05;;;;;;;6.75;5.10;;;;;;;-143.21;57.14;71102.63;5075942;28;20220;-79
2023/06/27 09:04:34;;;;;;;6.00;4.57;;;;;;;-143.21;55.97;71100.66;5075634;28;20193;-81
2023/06/27 09:07:01;;;;;;;6.95;5.40;;;;;;;-143.21;55.61;71088.75;5087351;28;20714;-79
2023/06/27 09:09:30;;;;;;;7.03;5.03;;;;;;;-143.21;56.37;71090.72;5093181;28;20192;-79
2023/06/27 09:12:00;;;;;;;7.93;4.60;;;;;;;-143.21;54.34;71074.88;5095043;28;20651;-79
2023/06/27 09:14:27;;;;;;;8.88;5.88;;;;;;;-143.21;54.12;71059.00;5094981;28;20192;-79
2023/06/27 09:16:55;;;;;;;7.80;5.20;;;;;;;-143.21;53.85;71055.06;5095132;28;20196;-81
2023/06/27 09:19:22;;;;;;;8.73;5.20;;;;;;;-143.21;55.79;71053.06;5095121;28;20227;-80
2023/06/27 09:21:50;;;;;;;8.93;5.28;;;;;;;-143.21;57.19;71049.09;5094460;28;20248;-79
2023/06/27 09:24:22;;;;;;;7.50;4.70;;;;;;;-143.21;57.32;71039.19;5094651;28;20192;-80
2023/06/27 09:26:49;;;;;;;6.38;4.57;;;;;;;-143.21;56.30;71035.22;5095117;28;20219;-79
2023/06/27 09:29:16;;;;;;;9.68;4.97;;;;;;;-143.21;54.85;71031.25;5094584;28;20676;-79
2023/06/27 09:31:44;;;;;;;7.00;5.20;;;;;;;-143.21;54.47;71027.28;5094734;28;20418;-79
2023/06/27 09:34:13;;;;;;;13.65;5.50;;;;;;;-143.21;55.75;71021.34;5094438;28;20200;-81
2023/06/27 09:36:40;;;;;;;7.70;5.50;;;;;;;-143.21;56.63;71009.44;5091806;28;20201;-80
2023/06/27 09:39:08;;;;;;;7.22;5.25;;;;;;;-143.21;55.53;71005.50;5089711;28;20568;-79
2023/06/27 09:41:44;;;;;;;7.40;5.30;;;;;;;-143.21;56.19;70995.56;5094529;28;20192;-80
2023/06/27 09:44:12;;;;;;;7.80;5.63;;;;;;;-143.21;56.28;70977.72;5094223;28;20271;-79
2023/06/27 09:46:40;;;;;;;9.75;6.00;;;;;;;-143.21;57.32;70955.94;5093767;28;20275;-79
2023/06/27 09:49:07;;;;;;;8.80;5.85;;;;;;;-143.21;57.32;70936.09;5093891;28;20238;-79
2023/06/27 09:51:36;;;;;;;7.65;5.50;;;;;;;-143.21;54.67;70930.16;5093878;28;20228;-79
2023/06/27 09:54:03;;;;;;;8.57;5.10;;;;;;;-143.21;54.88;70916.28;5093790;28;20283;-79
2023/06/27 09:56:31;;;;;;;10.70;5.65;;;;;;;-143.21;54.76;70906.38;5094138;28;20668;-80
2023/06/27 09:58:58;;;;;;;7.07;5.25;;;;;;;-143.21;55.18;70900.41;5093565;28;20317;-81
2023/06/27 10:01:25;;;;;;;8.35;4.72;;;;;;;-143.21;53.32;70894.47;5093791;28;20189;-81
2023/06/27 10:03:52;;;;;;;8.70;5.00;;;;;;;-143.21;53.04;70882.59;5093984;28;20730;-80
2023/06/27 10:06:18;;;;;;;7.85;4.85;;;;;;;-143.21;52.17;70864.75;5093884;28;20570;-81
2023/06/27 10:08:47;;;;;;;6.45;4.85;;;;;;;-143.21;52.20;70848.88;5093656;28;20376;-80
2023/06/27 10:11:14;;;;;;;12.75;5.30;;;;;;;-143.21;51.68;70833.03;5094059;28;20201;-80
2023/06/27 10:13:42;;;;;;;9.48;5.88;;;;;;;-143.21;52.23;70819.16;5093752;28;20546;-80
2023/06/27 10:16:09;;;;;;;7.90;5.10;;;;;;;-143.21;51.10;70809.25;5094017;28;20188;-80
2023/06/27 10:18:36;;;;;;;5.97;5.13;;;;;;;-143.21;50.78;70789.41;5093819;28;20216;-80
2023/06/27 10:21:03;;;;;;;8.43;4.90;;;;;;;-143.21;50.33;70777.53;5093587;28;20240;-80
2023/06/27 10:23:32;;;;;;;6.65;4.70;;;;;;;-143.21;48.63;70767.63;5093414;28;20420;-79
2023/06/27 10:26:00;;;;;;;6.07;4.32;;;;;;;-143.21;47.45;70761.66;5093554;28;20192;-79
2023/06/27 10:28:30;;;;;;;6.03;4.45;;;;;;;-143.21;47.34;70777.53;5093524;28;20279;-78
2023/06/27 10:30:58;;;;;;;9.35;4.93;;;;;;;-143.21;46.27;70773.56;5093456;28;20231;-78
2023/06/27 10:33:28;;;;;;;9.93;4.40;;;;;;;-143.21;44.75;70759.69;5093661;28;20201;-79
2023/06/27 10:36:01;;;;;;;6.68;4.35;;;;;;;-143.21;44.48;70749.78;5090462;28;20193;-79
2023/06/27 10:38:36;;;;;;;6.55;5.10;;;;;;;-143.21;44.48;70733.91;5077159;28;20295;-79
2023/06/27 10:41:12;;;;;;;5.68;4.10;;;;;;;-143.21;43.50;70729.94;5092784;28;20178;-79
2023/06/27 10:43:40;;;;;;;10.07;4.53;;;;;;;-143.21;44.13;70722.03;5093285;28;20288;-80
2023/06/27 10:46:08;;;;;;;16.00;5.22;;;;;;;-143.21;43.90;70706.16;5093227;28;20197;-80
2023/06/27 10:48:36;;;;;;;9.88;6.00;;;;;;;-143.21;43.25;70682.38;5093357;28;20205;-80
2023/06/27 10:51:07;;;;;;;9.40;5.10;;;;;;;-143.21;43.22;70656.59;5093279;28;20201;-80
2023/06/27 10:53:34;;;;;;;7.25;4.95;;;;;;;-143.21;44.20;70634.81;5092921;28;20666;-79
2023/06/27 10:56:15;;;;;;;5.63;4.53;;;;;;;-143.21;43.08;70624.88;5093282;28;20212;-79
2023/06/27 10:58:45;;;;;;;8.35;4.68;;;;;;;-143.21;43.46;70603.09;5092822;28;20208;-79
2023/06/27 11:01:12;;;;;;;5.50;4.70;;;;;;;-143.21;44.32;70589.22;5092984;28;20285;-79
2023/06/27 11:03:40;;;;;;;6.15;4.63;;;;;;;-143.21;43.46;70567.41;5092787;28;20200;-80
2023/06/27 11:06:06;;;;;;;8.75;5.30;;;;;;;-143.21;43.14;70543.63;5092339;28;20235;-79
2023/06/27 11:08:34;;;;;;;5.70;4.57;;;;;;;-143.21;41.93;70535.69;5085030;28;20196;-79
2023/06/27 11:11:06;;;;;;;5.70;5.10;;;;;;;-143.21;42.37;70541.63;5092596;28;20667;-79
2023/06/27 11:13:36;;;;;;;7.80;5.13;;;;;;;-143.21;41.86;70539.66;5092320;28;20197;-78